sensor_id;sensor_type;location;lat;lon;timestamp;pressure;altitude;pressure_sealevel;temperature
17142;BMP180;32805;53.556;9.944;2023-04-01T00:02:19;99291.00;;;11.00
17142;BMP180;32805;53.556;9.944;2023-04-01T00:04:47;99292.00;;;11.00
17142;BMP180;32805;53.556;9.944;2023-04-01T00:07:16;99291.00;;;11.00
17142;BMP180;32805;53.556;9.944;2023-04-01T00:09:44;99290.00;;;11.00
17142;BMP180;32805;53.556;9.944;2023-04-01T00:12:11;99294.00;;;11.00
17142;BMP180;32805;53.556;9.944;2023-04-01T00:14:39;99291.00;;;11.00
17142;BMP180;32805;53.556;9.944;2023-04-01T00:17:07;99293.00;;;11.00
17142;BMP180;32805;53.556;9.944;2023-04-01T00:19:36;99294.00;;;11.00
17142;BMP180;32805;53.556;9.944;2023-04-01T00:22:03;99294.00;;;11.00
17142;BMP180;32805;53.556;9.944;2023-04-01T00:24:33;99293.00;;;11.00
17142;BMP180;32805;53.556;9.944;2023-04-01T00:27:00;99292.00;;;11.10
17142;BMP180;32805;53.556;9.944;2023-04-01T00:29:28;99296.00;;;11.00
17142;BMP180;32805;53.556;9.944;2023-04-01T00:31:57;99287.00;;;11.00
17142;BMP180;32805;53.556;9.944;2023-04-01T00:34:25;99306.00;;;11.00
17142;BMP180;32805;53.556;9.944;2023-04-01T00:36:53;99289.00;;;11.00
17142;BMP180;32805;53.556;9.944;2023-04-01T00:39:20;99289.00;;;11.00
17142;BMP180;32805;53.556;9.944;2023-04-01T00:41:50;99292.00;;;10.90
17142;BMP180;32805;53.556;9.944;2023-04-01T00:44:21;99289.00;;;10.90
17142;BMP180;32805;53.556;9.944;2023-04-01T00:46:49;99295.00;;;10.90
17142;BMP180;32805;53.556;9.944;2023-04-01T00:49:21;99296.00;;;10.90
17142;BMP180;32805;53.556;9.944;2023-04-01T00:51:52;99295.00;;;10.90
17142;BMP180;32805;53.556;9.944;2023-04-01T00:54:22;99286.00;;;10.90
17142;BMP180;32805;53.556;9.944;2023-04-01T00:56:55;99290.00;;;10.90
17142;BMP180;32805;53.556;9.944;2023-04-01T00:59:26;99290.00;;;10.90
17142;BMP180;32805;53.556;9.944;2023-04-01T01:01:54;99284.00;;;10.90
17142;BMP180;32805;53.556;9.944;2023-04-01T01:04:24;99291.00;;;10.90
17142;BMP180;32805;53.556;9.944;2023-04-01T01:06:59;99290.00;;;10.90
17142;BMP180;32805;53.556;9.944;2023-04-01T01:09:37;99307.00;;;10.80
17142;BMP180;32805;53.556;9.944;2023-04-01T01:12:11;99297.00;;;10.80
17142;BMP180;32805;53.556;9.944;2023-04-01T01:14:56;99298.00;;;10.80
17142;BMP180;32805;53.556;9.944;2023-04-01T01:17:34;99300.00;;;10.80
17142;BMP180;32805;53.556;9.944;2023-04-01T01:20:18;99296.00;;;10.80
17142;BMP180;32805;53.556;9.944;2023-04-01T01:23:04;99289.00;;;10.70
17142;BMP180;32805;53.556;9.944;2023-04-01T01:25:40;99294.00;;;10.80
17142;BMP180;32805;53.556;9.944;2023-04-01T01:28:27;99295.00;;;10.70
17142;BMP180;32805;53.556;9.944;2023-04-01T01:31:03;99296.00;;;10.70
17142;BMP180;32805;53.556;9.944;2023-04-01T01:33:47;99305.00;;;10.70
17142;BMP180;32805;53.556;9.944;2023-04-01T01:36:20;99295.00;;;10.70
17142;BMP180;32805;53.556;9.944;2023-04-01T01:38:50;99309.00;;;10.70
17142;BMP180;32805;53.556;9.944;2023-04-01T01:41:20;99293.00;;;10.70
17142;BMP180;32805;53.556;9.944;2023-04-01T01:43:50;99306.00;;;10.80
17142;BMP180;32805;53.556;9.944;2023-04-01T01:46:22;99300.00;;;10.80
17142;BMP180;32805;53.556;9.944;2023-04-01T01:48:51;99293.00;;;10.70
17142;BMP180;32805;53.556;9.944;2023-04-01T01:51:22;99308.00;;;10.70
17142;BMP180;32805;53.556;9.944;2023-04-01T01:53:50;99305.00;;;10.70
17142;BMP180;32805;53.556;9.944;2023-04-01T01:56:22;99314.00;;;10.70
17142;BMP180;32805;53.556;9.944;2023-04-01T01:58:52;99304.00;;;10.70
17142;BMP180;32805;53.556;9.944;2023-04-01T02:01:24;99309.00;;;10.70
17142;BMP180;32805;53.556;9.944;2023-04-01T02:03:55;99311.00;;;10.70
17142;BMP180;32805;53.556;9.944;2023-04-01T02:06:27;99313.00;;;10.70
17142;BMP180;32805;53.556;9.944;2023-04-01T02:08:59;99313.00;;;10.70
17142;BMP180;32805;53.556;9.944;2023-04-01T02:11:32;99317.00;;;10.80
17142;BMP180;32805;53.556;9.944;2023-04-01T02:14:03;99316.00;;;10.70
17142;BMP180;32805;53.556;9.944;2023-04-01T02:16:34;99318.00;;;10.70
17142;BMP180;32805;53.556;9.944;2023-04-01T02:19:04;99314.00;;;10.70
17142;BMP180;32805;53.556;9.944;2023-04-01T02:21:36;99314.00;;;10.70
17142;BMP180;32805;53.556;9.944;2023-04-01T02:24:08;99316.00;;;10.70
17142;BMP180;32805;53.556;9.944;2023-04-01T02:26:38;99314.00;;;10.80
17142;BMP180;32805;53.556;9.944;2023-04-01T02:29:08;99313.00;;;10.80
17142;BMP180;32805;53.556;9.944;2023-04-01T02:31:37;99320.00;;;10.80
17142;BMP180;32805;53.556;9.944;2023-04-01T02:34:05;99323.00;;;10.80
17142;BMP180;32805;53.556;9.944;2023-04-01T02:36:36;99318.00;;;10.80
17142;BMP180;32805;53.556;9.944;2023-04-01T02:39:04;99321.00;;;10.70
17142;BMP180;32805;53.556;9.944;2023-04-01T02:41:38;99323.00;;;10.70
17142;BMP180;32805;53.556;9.944;2023-04-01T02:44:07;99331.00;;;10.70
17142;BMP180;32805;53.556;9.944;2023-04-01T02:46:34;99324.00;;;10.70
17142;BMP180;32805;53.556;9.944;2023-04-01T02:49:03;99323.00;;;10.80
17142;BMP180;32805;53.556;9.944;2023-04-01T02:51:31;99318.00;;;10.70
17142;BMP180;32805;53.556;9.944;2023-04-01T02:54:00;99341.00;;;10.80
17142;BMP180;32805;53.556;9.944;2023-04-01T02:56:28;99332.00;;;10.80
17142;BMP180;32805;53.556;9.944;2023-04-01T02:58:56;99337.00;;;10.70
17142;BMP180;32805;53.556;9.944;2023-04-01T03:01:24;99335.00;;;10.70
17142;BMP180;32805;53.556;9.944;2023-04-01T03:03:51;99346.00;;;10.70
17142;BMP180;32805;53.556;9.944;2023-04-01T03:06:19;99342.00;;;10.70
17142;BMP180;32805;53.556;9.944;2023-04-01T03:08:47;99348.00;;;10.70
17142;BMP180;32805;53.556;9.944;2023-04-01T03:11:16;99347.00;;;10.70
17142;BMP180;32805;53.556;9.944;2023-04-01T03:13:43;99347.00;;;10.70
17142;BMP180;32805;53.556;9.944;2023-04-01T03:16:11;99350.00;;;10.70
17142;BMP180;32805;53.556;9.944;2023-04-01T03:18:39;99346.00;;;10.70
17142;BMP180;32805;53.556;9.944;2023-04-01T03:21:14;99354.00;;;10.70
17142;BMP180;32805;53.556;9.944;2023-04-01T03:23:42;99345.00;;;10.70
17142;BMP180;32805;53.556;9.944;2023-04-01T03:26:10;99354.00;;;10.70
17142;BMP180;32805;53.556;9.944;2023-04-01T03:28:39;99350.00;;;10.70
17142;BMP180;32805;53.556;9.944;2023-04-01T03:31:06;99349.00;;;10.60
17142;BMP180;32805;53.556;9.944;2023-04-01T03:33:41;99351.00;;;10.60
17142;BMP180;32805;53.556;9.944;2023-04-01T03:36:09;99347.00;;;10.60
17142;BMP180;32805;53.556;9.944;2023-04-01T03:38:40;99349.00;;;10.70
17142;BMP180;32805;53.556;9.944;2023-04-01T03:41:12;99355.00;;;10.70
17142;BMP180;32805;53.556;9.944;2023-04-01T03:43:41;99350.00;;;10.70
17142;BMP180;32805;53.556;9.944;2023-04-01T03:46:09;99359.00;;;10.60
17142;BMP180;32805;53.556;9.944;2023-04-01T03:48:37;99354.00;;;10.70
17142;BMP180;32805;53.556;9.944;2023-04-01T03:51:06;99361.00;;;10.60
17142;BMP180;32805;53.556;9.944;2023-04-01T03:53:34;99365.00;;;10.60
17142;BMP180;32805;53.556;9.944;2023-04-01T03:56:05;99371.00;;;10.60
17142;BMP180;32805;53.556;9.944;2023-04-01T03:58:34;99367.00;;;10.50
17142;BMP180;32805;53.556;9.944;2023-04-01T04:01:13;99371.00;;;10.50
17142;BMP180;32805;53.556;9.944;2023-04-01T04:03:41;99372.00;;;10.50
17142;BMP180;32805;53.556;9.944;2023-04-01T04:06:11;99373.00;;;10.50
17142;BMP180;32805;53.556;9.944;2023-04-01T04:08:39;99371.00;;;10.50
17142;BMP180;32805;53.556;9.944;2023-04-01T04:11:07;99370.00;;;10.50
17142;BMP180;32805;53.556;9.944;2023-04-01T04:13:38;99375.00;;;10.50
17142;BMP180;32805;53.556;9.944;2023-04-01T04:16:08;99377.00;;;10.50
17142;BMP180;32805;53.556;9.944;2023-04-01T04:18:40;99379.00;;;10.50
17142;BMP180;32805;53.556;9.944;2023-04-01T04:21:11;99382.00;;;10.50
17142;BMP180;32805;53.556;9.944;2023-04-01T04:23:40;99385.00;;;10.50
17142;BMP180;32805;53.556;9.944;2023-04-01T04:26:09;99376.00;;;10.50
17142;BMP180;32805;53.556;9.944;2023-04-01T04:28:38;99385.00;;;10.40
17142;BMP180;32805;53.556;9.944;2023-04-01T04:31:07;99392.00;;;10.50
17142;BMP180;32805;53.556;9.944;2023-04-01T04:33:35;99384.00;;;10.50
17142;BMP180;32805;53.556;9.944;2023-04-01T04:36:04;99384.00;;;10.50
17142;BMP180;32805;53.556;9.944;2023-04-01T04:38:32;99387.00;;;10.40
17142;BMP180;32805;53.556;9.944;2023-04-01T04:40:59;99398.00;;;10.50
17142;BMP180;32805;53.556;9.944;2023-04-01T04:43:27;99402.00;;;10.50
17142;BMP180;32805;53.556;9.944;2023-04-01T04:45:56;99400.00;;;10.50
17142;BMP180;32805;53.556;9.944;2023-04-01T04:48:24;99409.00;;;10.50
17142;BMP180;32805;53.556;9.944;2023-04-01T04:50:52;99409.00;;;10.50
17142;BMP180;32805;53.556;9.944;2023-04-01T04:53:22;99408.00;;;10.50
17142;BMP180;32805;53.556;9.944;2023-04-01T04:55:52;99411.00;;;10.50
17142;BMP180;32805;53.556;9.944;2023-04-01T04:58:28;99406.00;;;10.40
17142;BMP180;32805;53.556;9.944;2023-04-01T05:00:56;99408.00;;;10.40
17142;BMP180;32805;53.556;9.944;2023-04-01T05:03:29;99419.00;;;10.40
17142;BMP180;32805;53.556;9.944;2023-04-01T05:05:57;99420.00;;;10.40
17142;BMP180;32805;53.556;9.944;2023-04-01T05:08:25;99417.00;;;10.40
17142;BMP180;32805;53.556;9.944;2023-04-01T05:10:53;99427.00;;;10.40
17142;BMP180;32805;53.556;9.944;2023-04-01T05:13:21;99427.00;;;10.30
17142;BMP180;32805;53.556;9.944;2023-04-01T05:15:49;99424.00;;;10.30
17142;BMP180;32805;53.556;9.944;2023-04-01T05:18:16;99428.00;;;10.30
17142;BMP180;32805;53.556;9.944;2023-04-01T05:20:51;99422.00;;;10.30
17142;BMP180;32805;53.556;9.944;2023-04-01T05:23:19;99427.00;;;10.30
17142;BMP180;32805;53.556;9.944;2023-04-01T05:25:48;99428.00;;;10.40
17142;BMP180;32805;53.556;9.944;2023-04-01T05:28:16;99438.00;;;10.40
17142;BMP180;32805;53.556;9.944;2023-04-01T05:30:46;99446.00;;;10.40
17142;BMP180;32805;53.556;9.944;2023-04-01T05:33:21;99450.00;;;10.40
17142;BMP180;32805;53.556;9.944;2023-04-01T05:35:50;99451.00;;;10.30
17142;BMP180;32805;53.556;9.944;2023-04-01T05:38:18;99452.00;;;10.40
17142;BMP180;32805;53.556;9.944;2023-04-01T05:40:45;99444.00;;;10.30
17142;BMP180;32805;53.556;9.944;2023-04-01T05:43:14;99468.00;;;10.10
17142;BMP180;32805;53.556;9.944;2023-04-01T05:45:44;99465.00;;;9.80
17142;BMP180;32805;53.556;9.944;2023-04-01T05:48:12;99472.00;;;9.60
17142;BMP180;32805;53.556;9.944;2023-04-01T05:50:40;99472.00;;;9.50
17142;BMP180;32805;53.556;9.944;2023-04-01T05:53:11;99479.00;;;9.40
17142;BMP180;32805;53.556;9.944;2023-04-01T05:55:41;99487.00;;;9.30
17142;BMP180;32805;53.556;9.944;2023-04-01T05:58:09;99489.00;;;9.20
17142;BMP180;32805;53.556;9.944;2023-04-01T06:00:39;99500.00;;;9.10
17142;BMP180;32805;53.556;9.944;2023-04-01T06:03:06;99496.00;;;9.00
17142;BMP180;32805;53.556;9.944;2023-04-01T06:05:39;99507.00;;;8.90
17142;BMP180;32805;53.556;9.944;2023-04-01T06:08:12;99519.00;;;8.80
17142;BMP180;32805;53.556;9.944;2023-04-01T06:10:57;99512.00;;;8.80
17142;BMP180;32805;53.556;9.944;2023-04-01T06:13:38;99520.00;;;8.80
17142;BMP180;32805;53.556;9.944;2023-04-01T06:16:18;99516.00;;;8.70
17142;BMP180;32805;53.556;9.944;2023-04-01T06:19:13;99524.00;;;8.60
17142;BMP180;32805;53.556;9.944;2023-04-01T06:22:05;99518.00;;;8.60
17142;BMP180;32805;53.556;9.944;2023-04-01T06:25:05;99535.00;;;8.50
17142;BMP180;32805;53.556;9.944;2023-04-01T06:27:50;99531.00;;;8.50
17142;BMP180;32805;53.556;9.944;2023-04-01T06:30:34;99527.00;;;8.40
17142;BMP180;32805;53.556;9.944;2023-04-01T06:33:20;99544.00;;;8.40
17142;BMP180;32805;53.556;9.944;2023-04-01T06:38:57;99542.00;;;8.50
17142;BMP180;32805;53.556;9.944;2023-04-01T06:41:51;99556.00;;;8.40
17142;BMP180;32805;53.556;9.944;2023-04-01T06:44:31;99556.00;;;8.40
17142;BMP180;32805;53.556;9.944;2023-04-01T06:47:52;99565.00;;;8.40
17142;BMP180;32805;53.556;9.944;2023-04-01T06:50:48;99571.00;;;8.30
17142;BMP180;32805;53.556;9.944;2023-04-01T06:53:42;99574.00;;;8.30
17142;BMP180;32805;53.556;9.944;2023-04-01T06:56:32;99581.00;;;8.20
17142;BMP180;32805;53.556;9.944;2023-04-01T06:59:10;99581.00;;;8.30
17142;BMP180;32805;53.556;9.944;2023-04-01T07:01:41;99582.00;;;8.30
17142;BMP180;32805;53.556;9.944;2023-04-01T07:04:13;99586.00;;;8.30
17142;BMP180;32805;53.556;9.944;2023-04-01T07:06:46;99590.00;;;8.20
17142;BMP180;32805;53.556;9.944;2023-04-01T07:09:19;99590.00;;;8.30
17142;BMP180;32805;53.556;9.944;2023-04-01T07:12:12;99606.00;;;8.20
17142;BMP180;32805;53.556;9.944;2023-04-01T07:15:09;99605.00;;;8.20
17142;BMP180;32805;53.556;9.944;2023-04-01T07:17:41;99611.00;;;8.10
17142;BMP180;32805;53.556;9.944;2023-04-01T07:20:17;99622.00;;;8.10
17142;BMP180;32805;53.556;9.944;2023-04-01T07:22:49;99625.00;;;8.00
17142;BMP180;32805;53.556;9.944;2023-04-01T07:25:33;99634.00;;;8.00
17142;BMP180;32805;53.556;9.944;2023-04-01T07:28:27;99636.00;;;7.90
17142;BMP180;32805;53.556;9.944;2023-04-01T07:31:13;99636.00;;;7.70
17142;BMP180;32805;53.556;9.944;2023-04-01T07:33:52;99650.00;;;7.70
17142;BMP180;32805;53.556;9.944;2023-04-01T07:36:26;99652.00;;;7.70
17142;BMP180;32805;53.556;9.944;2023-04-01T07:39:03;99659.00;;;7.70
17142;BMP180;32805;53.556;9.944;2023-04-01T07:41:52;99651.00;;;7.70
17142;BMP180;32805;53.556;9.944;2023-04-01T07:44:28;99660.00;;;7.70
17142;BMP180;32805;53.556;9.944;2023-04-01T07:47:13;99661.00;;;7.60
17142;BMP180;32805;53.556;9.944;2023-04-01T07:49:55;99672.00;;;7.60
17142;BMP180;32805;53.556;9.944;2023-04-01T07:52:35;99669.00;;;7.60
17142;BMP180;32805;53.556;9.944;2023-04-01T07:55:17;99686.00;;;7.70
17142;BMP180;32805;53.556;9.944;2023-04-01T07:57:52;99670.00;;;7.70
17142;BMP180;32805;53.556;9.944;2023-04-01T08:00:24;99668.00;;;7.60
17142;BMP180;32805;53.556;9.944;2023-04-01T08:03:14;99692.00;;;7.60
17142;BMP180;32805;53.556;9.944;2023-04-01T08:05:53;99696.00;;;7.60
17142;BMP180;32805;53.556;9.944;2023-04-01T08:08:32;99692.00;;;7.50
17142;BMP180;32805;53.556;9.944;2023-04-01T08:11:43;99703.00;;;7.60
17142;BMP180;32805;53.556;9.944;2023-04-01T08:14:40;99709.00;;;7.60
17142;BMP180;32805;53.556;9.944;2023-04-01T08:17:51;99723.00;;;7.70
17142;BMP180;32805;53.556;9.944;2023-04-01T08:20:28;99728.00;;;7.70
17142;BMP180;32805;53.556;9.944;2023-04-01T08:23:00;99733.00;;;7.70
17142;BMP180;32805;53.556;9.944;2023-04-01T08:25:37;99720.00;;;7.70
17142;BMP180;32805;53.556;9.944;2023-04-01T08:28:11;99735.00;;;7.60
17142;BMP180;32805;53.556;9.944;2023-04-01T08:30:43;99743.00;;;7.70
17142;BMP180;32805;53.556;9.944;2023-04-01T08:33:17;99752.00;;;7.70
17142;BMP180;32805;53.556;9.944;2023-04-01T08:35:55;99741.00;;;7.80
17142;BMP180;32805;53.556;9.944;2023-04-01T08:38:29;99751.00;;;7.80
17142;BMP180;32805;53.556;9.944;2023-04-01T08:41:00;99750.00;;;7.80
17142;BMP180;32805;53.556;9.944;2023-04-01T08:44:09;99762.00;;;7.80
17142;BMP180;32805;53.556;9.944;2023-04-01T08:47:09;99762.00;;;7.80
17142;BMP180;32805;53.556;9.944;2023-04-01T08:50:04;99767.00;;;7.90
17142;BMP180;32805;53.556;9.944;2023-04-01T08:53:06;99773.00;;;7.70
17142;BMP180;32805;53.556;9.944;2023-04-01T08:55:49;99782.00;;;7.70
17142;BMP180;32805;53.556;9.944;2023-04-01T08:58:48;99779.00;;;7.60
17142;BMP180;32805;53.556;9.944;2023-04-01T09:01:35;99780.00;;;7.50
17142;BMP180;32805;53.556;9.944;2023-04-01T09:04:29;99788.00;;;7.70
17142;BMP180;32805;53.556;9.944;2023-04-01T09:07:09;99782.00;;;7.70
17142;BMP180;32805;53.556;9.944;2023-04-01T09:10:15;99790.00;;;7.70
17142;BMP180;32805;53.556;9.944;2023-04-01T09:13:05;99799.00;;;7.70
17142;BMP180;32805;53.556;9.944;2023-04-01T09:16:00;99789.00;;;7.80
17142;BMP180;32805;53.556;9.944;2023-04-01T09:21:36;99792.00;;;8.00
17142;BMP180;32805;53.556;9.944;2023-04-01T09:24:28;99817.00;;;8.00
17142;BMP180;32805;53.556;9.944;2023-04-01T09:27:04;99818.00;;;8.00
17142;BMP180;32805;53.556;9.944;2023-04-01T09:32:47;99824.00;;;8.00
17142;BMP180;32805;53.556;9.944;2023-04-01T09:35:37;99830.00;;;8.00
17142;BMP180;32805;53.556;9.944;2023-04-01T09:38:20;99826.00;;;7.90
17142;BMP180;32805;53.556;9.944;2023-04-01T09:40:55;99831.00;;;8.00
17142;BMP180;32805;53.556;9.944;2023-04-01T09:43:47;99842.00;;;8.00
17142;BMP180;32805;53.556;9.944;2023-04-01T09:46:26;99842.00;;;8.00
17142;BMP180;32805;53.556;9.944;2023-04-01T09:52:22;99856.00;;;8.00
17142;BMP180;32805;53.556;9.944;2023-04-01T09:55:15;99868.00;;;8.00
17142;BMP180;32805;53.556;9.944;2023-04-01T10:02:08;99866.00;;;8.00
17142;BMP180;32805;53.556;9.944;2023-04-01T10:05:05;99867.00;;;8.00
17142;BMP180;32805;53.556;9.944;2023-04-01T10:11:11;99874.00;;;8.10
17142;BMP180;32805;53.556;9.944;2023-04-01T10:14:01;99862.00;;;8.10
17142;BMP180;32805;53.556;9.944;2023-04-01T10:20:15;99878.00;;;8.00
17142;BMP180;32805;53.556;9.944;2023-04-01T10:22:59;99886.00;;;8.00
17142;BMP180;32805;53.556;9.944;2023-04-01T10:25:57;99885.00;;;8.10
17142;BMP180;32805;53.556;9.944;2023-04-01T10:28:38;99892.00;;;8.20
17142;BMP180;32805;53.556;9.944;2023-04-01T10:31:35;99895.00;;;8.30
17142;BMP180;32805;53.556;9.944;2023-04-01T10:34:31;99894.00;;;8.30
17142;BMP180;32805;53.556;9.944;2023-04-01T10:37:09;99903.00;;;8.30
17142;BMP180;32805;53.556;9.944;2023-04-01T10:44:05;99905.00;;;8.10
17142;BMP180;32805;53.556;9.944;2023-04-01T10:47:06;99913.00;;;8.10
17142;BMP180;32805;53.556;9.944;2023-04-01T10:49:47;99904.00;;;8.10
17142;BMP180;32805;53.556;9.944;2023-04-01T10:52:55;99912.00;;;8.00
17142;BMP180;32805;53.556;9.944;2023-04-01T11:06:24;99942.00;;;7.80
17142;BMP180;32805;53.556;9.944;2023-04-01T11:12:37;99954.00;;;7.70
17142;BMP180;32805;53.556;9.944;2023-04-01T11:15:36;99952.00;;;7.80
17142;BMP180;32805;53.556;9.944;2023-04-01T11:18:26;99949.00;;;7.80
17142;BMP180;32805;53.556;9.944;2023-04-01T11:21:23;99959.00;;;7.70
17142;BMP180;32805;53.556;9.944;2023-04-01T11:24:17;99970.00;;;7.70
17142;BMP180;32805;53.556;9.944;2023-04-01T11:27:11;99964.00;;;7.70
17142;BMP180;32805;53.556;9.944;2023-04-01T11:30:02;99968.00;;;7.70
17142;BMP180;32805;53.556;9.944;2023-04-01T11:32:43;99976.00;;;7.60
17142;BMP180;32805;53.556;9.944;2023-04-01T11:35:36;99979.00;;;7.60
17142;BMP180;32805;53.556;9.944;2023-04-01T11:38:19;99987.00;;;7.60
17142;BMP180;32805;53.556;9.944;2023-04-01T11:40:54;99987.00;;;7.60
17142;BMP180;32805;53.556;9.944;2023-04-01T11:43:51;99991.00;;;7.60
17142;BMP180;32805;53.556;9.944;2023-04-01T11:46:48;99989.00;;;7.60
17142;BMP180;32805;53.556;9.944;2023-04-01T11:49:42;100003.00;;;7.60
17142;BMP180;32805;53.556;9.944;2023-04-01T11:55:38;100014.00;;;7.60
17142;BMP180;32805;53.556;9.944;2023-04-01T11:58:22;100015.00;;;7.50
17142;BMP180;32805;53.556;9.944;2023-04-01T12:01:17;100027.00;;;7.40
17142;BMP180;32805;53.556;9.944;2023-04-01T12:04:17;100040.00;;;7.30
17142;BMP180;32805;53.556;9.944;2023-04-01T12:06:59;100026.00;;;7.30
17142;BMP180;32805;53.556;9.944;2023-04-01T12:09:34;100044.00;;;7.20
17142;BMP180;32805;53.556;9.944;2023-04-01T12:12:14;100043.00;;;7.10
17142;BMP180;32805;53.556;9.944;2023-04-01T12:14:48;100046.00;;;7.20
17142;BMP180;32805;53.556;9.944;2023-04-01T12:17:28;100050.00;;;7.20
17142;BMP180;32805;53.556;9.944;2023-04-01T12:20:15;100064.00;;;7.20
17142;BMP180;32805;53.556;9.944;2023-04-01T12:22:56;100075.00;;;7.20
17142;BMP180;32805;53.556;9.944;2023-04-01T12:25:53;100086.00;;;7.10
17142;BMP180;32805;53.556;9.944;2023-04-01T12:28:29;100081.00;;;7.10
17142;BMP180;32805;53.556;9.944;2023-04-01T12:31:15;100085.00;;;7.10
17142;BMP180;32805;53.556;9.944;2023-04-01T12:33:54;100087.00;;;7.20
17142;BMP180;32805;53.556;9.944;2023-04-01T12:36:43;100091.00;;;7.20
17142;BMP180;32805;53.556;9.944;2023-04-01T12:39:35;100091.00;;;7.20
17142;BMP180;32805;53.556;9.944;2023-04-01T12:42:12;100092.00;;;7.20
17142;BMP180;32805;53.556;9.944;2023-04-01T12:44:56;100093.00;;;7.20
17142;BMP180;32805;53.556;9.944;2023-04-01T12:47:50;100101.00;;;7.20
17142;BMP180;32805;53.556;9.944;2023-04-01T12:50:35;100105.00;;;7.30
17142;BMP180;32805;53.556;9.944;2023-04-01T12:53:22;100111.00;;;7.30
17142;BMP180;32805;53.556;9.944;2023-04-01T12:55:52;100125.00;;;7.30
17142;BMP180;32805;53.556;9.944;2023-04-01T13:01:23;100130.00;;;7.30
17142;BMP180;32805;53.556;9.944;2023-04-01T13:06:56;100131.00;;;7.30
17142;BMP180;32805;53.556;9.944;2023-04-01T13:09:37;100133.00;;;7.40
17142;BMP180;32805;53.556;9.944;2023-04-01T13:12:24;100140.00;;;7.30
17142;BMP180;32805;53.556;9.944;2023-04-01T13:15:18;100140.00;;;7.30
17142;BMP180;32805;53.556;9.944;2023-04-01T13:17:53;100153.00;;;7.30
17142;BMP180;32805;53.556;9.944;2023-04-01T13:20:35;100142.00;;;7.30
17142;BMP180;32805;53.556;9.944;2023-04-01T13:23:13;100161.00;;;7.20
17142;BMP180;32805;53.556;9.944;2023-04-01T13:25:49;100162.00;;;7.20
17142;BMP180;32805;53.556;9.944;2023-04-01T13:28:39;100175.00;;;7.20
17142;BMP180;32805;53.556;9.944;2023-04-01T13:31:12;100173.00;;;7.10
17142;BMP180;32805;53.556;9.944;2023-04-01T13:33:50;100169.00;;;7.10
17142;BMP180;32805;53.556;9.944;2023-04-01T13:36:29;100183.00;;;7.00
17142;BMP180;32805;53.556;9.944;2023-04-01T13:39:19;100183.00;;;7.00
17142;BMP180;32805;53.556;9.944;2023-04-01T13:42:09;100188.00;;;7.00
17142;BMP180;32805;53.556;9.944;2023-04-01T13:44:44;100188.00;;;6.90
17142;BMP180;32805;53.556;9.944;2023-04-01T13:47:24;100211.00;;;6.80
17142;BMP180;32805;53.556;9.944;2023-04-01T13:53:25;100216.00;;;6.80
17142;BMP180;32805;53.556;9.944;2023-04-01T13:56:03;100214.00;;;6.80
17142;BMP180;32805;53.556;9.944;2023-04-01T13:58:47;100210.00;;;6.90
17142;BMP180;32805;53.556;9.944;2023-04-01T14:01:23;100212.00;;;6.90
17142;BMP180;32805;53.556;9.944;2023-04-01T14:04:21;100216.00;;;6.90
17142;BMP180;32805;53.556;9.944;2023-04-01T14:06:59;100232.00;;;6.90
17142;BMP180;32805;53.556;9.944;2023-04-01T14:09:43;100227.00;;;7.00
17142;BMP180;32805;53.556;9.944;2023-04-01T14:12:25;100235.00;;;7.00
17142;BMP180;32805;53.556;9.944;2023-04-01T14:15:07;100244.00;;;6.90
17142;BMP180;32805;53.556;9.944;2023-04-01T14:17:46;100238.00;;;6.80
17142;BMP180;32805;53.556;9.944;2023-04-01T14:20:33;100247.00;;;6.90
17142;BMP180;32805;53.556;9.944;2023-04-01T14:23:28;100245.00;;;6.90
17142;BMP180;32805;53.556;9.944;2023-04-01T14:29:06;100256.00;;;7.10
17142;BMP180;32805;53.556;9.944;2023-04-01T14:31:59;100268.00;;;7.20
17142;BMP180;32805;53.556;9.944;2023-04-01T14:34:44;100259.00;;;7.20
17142;BMP180;32805;53.556;9.944;2023-04-01T14:37:23;100259.00;;;7.30
17142;BMP180;32805;53.556;9.944;2023-04-01T14:40:05;100263.00;;;7.30
17142;BMP180;32805;53.556;9.944;2023-04-01T14:45:46;100285.00;;;7.20
17142;BMP180;32805;53.556;9.944;2023-04-01T14:48:24;100280.00;;;7.00
17142;BMP180;32805;53.556;9.944;2023-04-01T14:50:55;100290.00;;;7.00
17142;BMP180;32805;53.556;9.944;2023-04-01T14:53:28;100295.00;;;6.90
17142;BMP180;32805;53.556;9.944;2023-04-01T14:55:57;100301.00;;;6.80
17142;BMP180;32805;53.556;9.944;2023-04-01T14:58:40;100307.00;;;6.70
17142;BMP180;32805;53.556;9.944;2023-04-01T15:01:21;100304.00;;;6.70
17142;BMP180;32805;53.556;9.944;2023-04-01T15:04:01;100318.00;;;6.70
17142;BMP180;32805;53.556;9.944;2023-04-01T15:06:54;100316.00;;;6.60
17142;BMP180;32805;53.556;9.944;2023-04-01T15:09:31;100325.00;;;6.50
17142;BMP180;32805;53.556;9.944;2023-04-01T15:12:14;100326.00;;;6.50
17142;BMP180;32805;53.556;9.944;2023-04-01T15:14:53;100332.00;;;6.40
17142;BMP180;32805;53.556;9.944;2023-04-01T15:17:40;100336.00;;;6.40
17142;BMP180;32805;53.556;9.944;2023-04-01T15:20:33;100344.00;;;6.40
17142;BMP180;32805;53.556;9.944;2023-04-01T15:23:11;100352.00;;;6.40
17142;BMP180;32805;53.556;9.944;2023-04-01T15:26:04;100354.00;;;6.30
17142;BMP180;32805;53.556;9.944;2023-04-01T15:28:37;100361.00;;;6.30
17142;BMP180;32805;53.556;9.944;2023-04-01T15:31:11;100373.00;;;6.30
17142;BMP180;32805;53.556;9.944;2023-04-01T15:33:52;100377.00;;;6.20
17142;BMP180;32805;53.556;9.944;2023-04-01T15:36:32;100369.00;;;6.20
17142;BMP180;32805;53.556;9.944;2023-04-01T15:39:10;100370.00;;;6.20
17142;BMP180;32805;53.556;9.944;2023-04-01T15:41:52;100379.00;;;6.20
17142;BMP180;32805;53.556;9.944;2023-04-01T15:44:40;100385.00;;;6.10
17142;BMP180;32805;53.556;9.944;2023-04-01T15:47:31;100390.00;;;6.10
17142;BMP180;32805;53.556;9.944;2023-04-01T15:53:00;100402.00;;;6.00
17142;BMP180;32805;53.556;9.944;2023-04-01T15:55:37;100414.00;;;6.00
17142;BMP180;32805;53.556;9.944;2023-04-01T15:58:28;100424.00;;;6.00
17142;BMP180;32805;53.556;9.944;2023-04-01T16:01:04;100425.00;;;5.90
17142;BMP180;32805;53.556;9.944;2023-04-01T16:03:39;100423.00;;;5.80
17142;BMP180;32805;53.556;9.944;2023-04-01T16:06:20;100432.00;;;5.80
17142;BMP180;32805;53.556;9.944;2023-04-01T16:09:08;100435.00;;;5.70
17142;BMP180;32805;53.556;9.944;2023-04-01T16:11:46;100439.00;;;5.70
17142;BMP180;32805;53.556;9.944;2023-04-01T16:14:25;100431.00;;;5.70
17142;BMP180;32805;53.556;9.944;2023-04-01T16:17:05;100453.00;;;5.60
17142;BMP180;32805;53.556;9.944;2023-04-01T16:19:41;100456.00;;;5.60
17142;BMP180;32805;53.556;9.944;2023-04-01T16:22:14;100460.00;;;5.60